Airfield :







YOU CAN JOIN US ON...

 
LOGIN :

Register | Disclaimer

   EN    FR    IT 

 









Legend :    VFR   Marginal VFR   IFR   Intensive IFR   Very Intensive IFR
Visi :
Ceiling :
>= 8 km
>= 3000ft
5 to 8 km
1000 to 3000 ft
1500m to 5 km
500 to 1000 ft
800 to 1500m
200 to 500 ft
< 800m
< 200 ft
Symbols :   Thunderstorms  Fog  Heavy snow  Heavy precipitations  Wind > 20 kt






- Airport Elevation : 40 ft
- IATA code : YRF


CYCA - Cartwright

CURRENT METAR :
  • 070800Z AUTO 30008KT 9SM OVC180 04/01 A3000 RMK SLP162

EXPIRED METARs :
  • 070700Z AUTO 32008KT 9SM BKN025 OVC180 04/01 A2998 RMK SLP155
  • 070644Z AUTO 32008KT 9SM SCT020 BKN027 OVC180 04/01 A2998 RMK SLP154
  • 070600Z AUTO 33010G15KT 9SM OVC022 04/01 A2996 RMK SLP149
  • 070532Z AUTO 33008G15KT 9SM BKN024 BKN076 04/01 A2995 RMK SLP145

TAF TAF CYCA
Valid from the 07 at 08:00 until the 07 at 20:00 UTC


070740Z 0708/0720 32008KT P6SM SCT012 BKN025 OVC180
TEMPO 0708/0712 BKN012 OVC025
PROB30 0708/0709 BKN008 OVC012
FM071200 32009KT P6SM BKN020 OVC030
TEMPO 0712/0715 SCT020 BKN030
FM071500 34009KT P6SM BKN030
TEMPO 0715/0718 BKN020 RMK FCST BASED ON AUTO OBS. NXT FCST BY 071400Z
CZQX FIR / North America



MET'MAP, your aeronautical weather chart ! - Copyright ORBIFLY December 2007 - Disclaimer

ORBIFLY MET'MAP TEAM :

Programming & Development : Alexandra Zaïnal
Original concept : Baudouin d'Aumeries
Technical & hardware support : Manuel Goepfert
Assistance : Marc-Olivier Méhu




SOURCES & CREDITS :

   NOAA